createdAt,value
2017-07-29T00:00:07.964Z,993
2017-07-29T00:01:15.442Z,994
2017-07-29T00:02:22.919Z,994
2017-07-29T00:03:30.401Z,994
2017-07-29T00:04:37.892Z,993
2017-07-29T00:05:45.347Z,993
2017-07-29T00:06:52.824Z,994
2017-07-29T00:08:00.305Z,994
2017-07-29T00:09:07.789Z,992
2017-07-29T00:10:15.264Z,993
2017-07-29T00:11:23.042Z,993
2017-07-29T00:12:30.518Z,993
2017-07-29T00:13:37.998Z,993
2017-07-29T00:14:45.711Z,993
2017-07-29T00:15:53.186Z,993
2017-07-29T00:17:01.023Z,993
2017-07-29T00:18:08.503Z,993
2017-07-29T00:19:15.979Z,993
2017-07-29T00:20:23.135Z,994
2017-07-29T00:21:30.614Z,993
2017-07-29T00:22:38.443Z,993
2017-07-29T00:23:45.920Z,993
2017-07-29T00:24:53.406Z,993
2017-07-29T00:26:00.885Z,994
2017-07-29T00:27:08.367Z,993
2017-07-29T00:28:16.200Z,993
2017-07-29T00:29:23.681Z,993
2017-07-29T00:30:31.162Z,993
2017-07-29T00:31:38.644Z,993
2017-07-29T00:32:46.121Z,993
2017-07-29T00:33:53.632Z,993
2017-07-29T00:35:01.113Z,994
2017-07-29T00:36:08.586Z,994
2017-07-29T00:37:16.068Z,994
2017-07-29T00:38:23.542Z,994
2017-07-29T00:39:31.574Z,993
2017-07-29T00:40:39.047Z,993
2017-07-29T00:41:46.527Z,993
2017-07-29T00:42:53.676Z,994
2017-07-29T00:44:01.157Z,994
2017-07-29T00:45:08.929Z,993
2017-07-29T00:46:16.413Z,994
2017-07-29T00:47:23.908Z,994
2017-07-29T00:48:31.388Z,994
2017-07-29T00:49:38.867Z,994
2017-07-29T00:50:46.650Z,993
2017-07-29T00:51:54.128Z,994
2017-07-29T00:53:01.606Z,993
2017-07-29T00:54:08.761Z,993
2017-07-29T00:55:16.244Z,993
2017-07-29T00:56:23.697Z,994
2017-07-29T00:57:31.175Z,993
2017-07-29T00:58:38.666Z,993
2017-07-29T00:59:46.145Z,993
2017-07-29T01:00:53.623Z,993
2017-07-29T01:02:01.404Z,993
2017-07-29T01:03:08.883Z,992
2017-07-29T01:04:16.361Z,993
2017-07-29T01:05:23.512Z,993
2017-07-29T01:06:30.990Z,993
2017-07-29T01:07:38.771Z,993
2017-07-29T01:08:46.251Z,993
2017-07-29T01:09:53.738Z,993
2017-07-29T01:11:01.220Z,993
2017-07-29T01:12:08.703Z,993
2017-07-29T01:13:16.478Z,993
2017-07-29T01:14:23.627Z,993
2017-07-29T01:15:31.102Z,993
2017-07-29T01:16:38.584Z,993
2017-07-29T01:17:46.067Z,993
2017-07-29T01:18:53.847Z,993
2017-07-29T01:20:01.324Z,992
2017-07-29T01:21:08.796Z,993
2017-07-29T01:22:16.282Z,993
2017-07-29T01:23:23.758Z,993
2017-07-29T01:24:31.538Z,993
2017-07-29T01:25:39.018Z,993
2017-07-29T01:26:46.503Z,994
2017-07-29T01:27:53.981Z,993
2017-07-29T01:29:01.455Z,993
2017-07-29T01:30:09.236Z,993
2017-07-29T01:31:16.708Z,994
2017-07-29T01:32:23.533Z,993
2017-07-29T01:33:31.013Z,993
2017-07-29T01:34:38.489Z,993
2017-07-29T01:35:46.267Z,993
2017-07-29T01:36:53.428Z,993
2017-07-29T01:38:00.906Z,993
2017-07-29T01:39:08.387Z,993
2017-07-29T01:40:15.867Z,993
2017-07-29T01:41:23.650Z,993
2017-07-29T01:42:31.124Z,994
2017-07-29T01:43:38.602Z,994
2017-07-29T01:44:46.089Z,993
2017-07-29T01:45:53.583Z,993
2017-07-29T01:47:01.359Z,993
2017-07-29T01:48:08.840Z,993
2017-07-29T01:49:16.321Z,992
2017-07-29T01:50:23.465Z,993
2017-07-29T01:51:30.942Z,993
2017-07-29T01:52:38.724Z,993
2017-07-29T01:53:46.211Z,993
2017-07-29T01:54:53.700Z,993
2017-07-29T01:56:01.179Z,993
2017-07-29T01:57:08.334Z,993
2017-07-29T01:58:16.110Z,993
2017-07-29T01:59:23.260Z,993
2017-07-29T02:00:30.737Z,993
2017-07-29T02:01:38.210Z,992
2017-07-29T02:02:45.689Z,993
2017-07-29T02:03:53.470Z,993
2017-07-29T02:05:00.956Z,993
2017-07-29T02:06:08.434Z,994
2017-07-29T02:07:15.914Z,993
2017-07-29T02:08:23.404Z,993
2017-07-29T02:09:30.853Z,993
2017-07-29T02:10:38.334Z,993
2017-07-29T02:11:45.809Z,994
2017-07-29T02:12:53.285Z,993
2017-07-29T02:14:00.760Z,993
2017-07-29T02:15:08.542Z,994
2017-07-29T02:16:16.031Z,993
2017-07-29T02:17:23.511Z,994
2017-07-29T02:18:30.990Z,993
2017-07-29T02:19:38.470Z,994
2017-07-29T02:20:46.246Z,993
2017-07-29T02:21:53.726Z,993
2017-07-29T02:23:01.207Z,993
2017-07-29T02:24:08.699Z,993
2017-07-29T02:25:15.518Z,993
2017-07-29T02:26:23.299Z,993
2017-07-29T02:27:30.778Z,993
2017-07-29T02:28:38.261Z,993
2017-07-29T02:29:45.742Z,993
2017-07-29T02:30:53.223Z,992
2017-07-29T02:32:01.012Z,992
2017-07-29T02:33:08.491Z,992
2017-07-29T02:34:15.972Z,992
2017-07-29T02:35:23.451Z,993
2017-07-29T02:36:30.931Z,992
2017-07-29T02:37:38.713Z,993
2017-07-29T02:38:46.198Z,993
2017-07-29T02:39:53.682Z,992
2017-07-29T02:41:01.165Z,993
2017-07-29T02:42:08.315Z,992
2017-07-29T02:43:15.763Z,992
2017-07-29T02:44:23.242Z,992
2017-07-29T02:45:30.389Z,993
2017-07-29T02:46:37.870Z,992
2017-07-29T02:47:45.356Z,993
2017-07-29T02:48:53.134Z,993
2017-07-29T02:50:00.631Z,992
2017-07-29T02:51:08.109Z,992
2017-07-29T02:52:15.591Z,992
2017-07-29T02:53:23.105Z,992
2017-07-29T02:54:30.883Z,992
2017-07-29T02:55:38.044Z,992
2017-07-29T02:56:44.874Z,992
2017-07-29T02:57:52.352Z,992
2017-07-29T02:58:59.831Z,992
2017-07-29T03:00:07.611Z,992
2017-07-29T03:01:15.095Z,992
2017-07-29T03:02:22.565Z,991
2017-07-29T03:03:30.043Z,992
2017-07-29T03:04:37.519Z,992
2017-07-29T03:05:45.295Z,992
2017-07-29T03:06:52.769Z,992
2017-07-29T03:08:00.247Z,992
2017-07-29T03:09:07.733Z,992
2017-07-29T03:10:15.220Z,991
2017-07-29T03:11:23.001Z,991
2017-07-29T03:12:30.153Z,992
2017-07-29T03:13:37.637Z,992
2017-07-29T03:14:45.119Z,992
2017-07-29T03:15:52.602Z,991
2017-07-29T03:17:00.382Z,991
2017-07-29T03:18:07.534Z,992
2017-07-29T03:19:14.683Z,992
2017-07-29T03:20:22.167Z,991
2017-07-29T03:21:29.651Z,992
2017-07-29T03:22:37.097Z,992
2017-07-29T03:23:44.246Z,991
2017-07-29T03:24:51.724Z,991
2017-07-29T03:25:59.205Z,992
2017-07-29T03:27:06.681Z,991
2017-07-29T03:28:14.461Z,992
2017-07-29T03:29:21.947Z,992
2017-07-29T03:30:29.431Z,991
2017-07-29T03:31:36.899Z,992
2017-07-29T03:32:44.057Z,991
2017-07-29T03:33:51.584Z,992
2017-07-29T03:34:58.747Z,991
2017-07-29T03:36:06.228Z,991
2017-07-29T03:37:13.713Z,992
2017-07-29T03:38:21.188Z,991
2017-07-29T03:39:28.971Z,991
2017-07-29T03:40:36.461Z,991
2017-07-29T03:41:43.939Z,991
2017-07-29T03:42:51.443Z,991
2017-07-29T03:43:58.923Z,991
2017-07-29T03:45:06.327Z,992
2017-07-29T03:46:13.812Z,992
2017-07-29T03:47:21.298Z,992
2017-07-29T03:48:28.779Z,992
2017-07-29T03:49:36.255Z,992
2017-07-29T03:50:44.029Z,992
2017-07-29T03:51:51.519Z,992
2017-07-29T03:52:58.998Z,992
2017-07-29T03:54:06.474Z,991
2017-07-29T03:55:13.622Z,991
2017-07-29T03:56:21.100Z,992
2017-07-29T03:57:28.581Z,992
2017-07-29T03:58:36.056Z,991
2017-07-29T03:59:43.535Z,992
2017-07-29T04:00:50.687Z,991
2017-07-29T04:01:57.807Z,992
2017-07-29T04:03:05.288Z,991
2017-07-29T04:04:12.763Z,992
2017-07-29T04:05:20.245Z,991
2017-07-29T04:06:27.723Z,991
2017-07-29T04:07:34.525Z,992
2017-07-29T04:08:42.001Z,991
2017-07-29T04:09:49.155Z,992
2017-07-29T04:10:56.636Z,991
2017-07-29T04:12:04.115Z,991
2017-07-29T04:13:11.900Z,992
2017-07-29T04:14:19.055Z,991
2017-07-29T04:15:26.542Z,991
2017-07-29T04:16:34.018Z,991
2017-07-29T04:17:41.168Z,991
2017-07-29T04:18:48.329Z,992
2017-07-29T04:19:55.806Z,991
2017-07-29T04:21:03.293Z,991
2017-07-29T04:22:10.774Z,991
2017-07-29T04:23:18.230Z,990
2017-07-29T04:24:25.703Z,991
2017-07-29T04:25:33.178Z,991
2017-07-29T04:26:40.329Z,991
2017-07-29T04:27:47.811Z,991
2017-07-29T04:28:55.592Z,991
2017-07-29T04:30:03.070Z,991
2017-07-29T04:31:10.560Z,991
2017-07-29T04:32:18.038Z,991
2017-07-29T04:33:25.518Z,991
2017-07-29T04:34:33.300Z,991
2017-07-29T04:35:40.782Z,992
2017-07-29T04:36:48.259Z,991
2017-07-29T04:37:55.737Z,992
2017-07-29T04:39:02.559Z,991
2017-07-29T04:40:10.336Z,992
2017-07-29T04:41:17.489Z,991
2017-07-29T04:42:24.967Z,992
2017-07-29T04:43:32.129Z,991
2017-07-29T04:44:39.607Z,992
2017-07-29T04:45:47.084Z,991
2017-07-29T04:46:54.236Z,992
2017-07-29T04:48:01.714Z,991
2017-07-29T04:49:09.197Z,991
2017-07-29T04:50:16.674Z,991
2017-07-29T04:51:24.459Z,991
2017-07-29T04:52:31.941Z,991
2017-07-29T04:53:39.418Z,991
2017-07-29T04:54:46.896Z,991
2017-07-29T04:55:54.044Z,991
2017-07-29T04:57:01.825Z,991
2017-07-29T04:58:09.305Z,991
2017-07-29T04:59:16.447Z,991
2017-07-29T05:00:23.926Z,991
2017-07-29T05:01:31.408Z,992
2017-07-29T05:02:38.888Z,992
2017-07-29T05:03:46.369Z,991
2017-07-29T05:04:53.581Z,991
2017-07-29T05:06:01.066Z,991
2017-07-29T05:07:08.544Z,991
2017-07-29T05:08:16.323Z,992
2017-07-29T05:09:23.804Z,991
2017-07-29T05:10:30.953Z,991
2017-07-29T05:11:38.425Z,991
2017-07-29T05:12:45.906Z,992
2017-07-29T05:13:53.689Z,992
2017-07-29T05:15:01.164Z,991
2017-07-29T05:16:08.882Z,991
2017-07-29T05:17:16.380Z,991
2017-07-29T05:18:23.862Z,992
2017-07-29T05:19:31.335Z,992
2017-07-29T05:20:38.813Z,992
2017-07-29T05:21:46.299Z,991
2017-07-29T05:22:53.780Z,991
2017-07-29T05:24:01.255Z,992
2017-07-29T05:25:08.403Z,991
2017-07-29T05:26:15.883Z,992
2017-07-29T05:27:23.358Z,992
2017-07-29T05:28:30.837Z,992
2017-07-29T05:29:38.316Z,992
2017-07-29T05:30:46.096Z,992
2017-07-29T05:31:53.576Z,992
2017-07-29T05:33:01.060Z,992
2017-07-29T05:34:08.546Z,992
2017-07-29T05:35:15.706Z,991
2017-07-29T05:36:23.482Z,992
2017-07-29T05:37:30.563Z,992
2017-07-29T05:38:38.037Z,991
2017-07-29T05:39:45.193Z,991
2017-07-29T05:40:52.673Z,991
2017-07-29T05:42:00.124Z,991
2017-07-29T05:43:07.605Z,991
2017-07-29T05:44:15.089Z,991
2017-07-29T05:45:22.571Z,991
2017-07-29T05:46:30.044Z,991
2017-07-29T05:47:37.828Z,991
2017-07-29T05:48:45.307Z,991
2017-07-29T05:50:07.380Z,991
2017-07-29T05:51:14.869Z,992
2017-07-29T05:52:22.348Z,991
2017-07-29T05:53:29.805Z,990
2017-07-29T05:54:37.278Z,990
2017-07-29T05:55:44.764Z,990
2017-07-29T05:56:52.237Z,991
2017-07-29T05:57:59.721Z,990
2017-07-29T05:59:07.500Z,991
2017-07-29T06:00:14.977Z,990
2017-07-29T06:01:22.467Z,991
2017-07-29T06:02:29.971Z,990
2017-07-29T06:03:37.455Z,991
2017-07-29T06:04:44.934Z,991
2017-07-29T06:05:52.419Z,991
2017-07-29T06:06:59.905Z,992
2017-07-29T06:08:07.379Z,991
2017-07-29T06:09:14.831Z,991
2017-07-29T06:10:21.656Z,991
2017-07-29T06:11:29.144Z,992
2017-07-29T06:12:36.625Z,993
2017-07-29T06:13:44.104Z,993
2017-07-29T06:14:51.892Z,992
2017-07-29T06:15:59.371Z,992
2017-07-29T06:17:06.854Z,991
2017-07-29T06:18:14.335Z,991
2017-07-29T06:19:21.840Z,992
2017-07-29T06:20:29.620Z,991
2017-07-29T06:21:37.103Z,991
2017-07-29T06:22:44.586Z,992
2017-07-29T06:23:51.741Z,991
2017-07-29T06:24:59.238Z,992
2017-07-29T06:26:07.014Z,992
2017-07-29T06:27:14.492Z,991
2017-07-29T06:28:21.974Z,991
2017-07-29T06:29:29.460Z,991
2017-07-29T06:30:36.950Z,992
2017-07-29T06:31:44.107Z,991
2017-07-29T06:32:51.590Z,991
2017-07-29T06:33:59.072Z,992
2017-07-29T06:35:06.556Z,991
2017-07-29T06:36:14.035Z,992
2017-07-29T06:37:21.486Z,992
2017-07-29T06:38:28.970Z,992
2017-07-29T06:39:36.461Z,992
2017-07-29T06:40:43.945Z,992
2017-07-29T06:41:51.434Z,993
2017-07-29T06:42:59.219Z,992
2017-07-29T06:44:06.704Z,993
2017-07-29T06:45:14.189Z,992
2017-07-29T06:46:21.677Z,992
2017-07-29T06:47:28.824Z,992
2017-07-29T06:48:36.297Z,992
2017-07-29T06:49:43.780Z,992
2017-07-29T06:50:51.260Z,993
2017-07-29T06:51:58.737Z,992
2017-07-29T06:53:06.216Z,992
2017-07-29T06:54:13.995Z,991
2017-07-29T06:55:21.476Z,992
2017-07-29T06:56:28.627Z,992
2017-07-29T06:57:36.105Z,992
2017-07-29T06:58:43.583Z,992
2017-07-29T06:59:51.036Z,992
2017-07-29T07:00:58.181Z,992
2017-07-29T07:02:05.335Z,992
2017-07-29T07:03:12.488Z,991
2017-07-29T07:04:19.976Z,992
2017-07-29T07:05:27.758Z,992
2017-07-29T07:06:35.240Z,994
2017-07-29T07:07:42.736Z,993
2017-07-29T07:08:50.215Z,993
2017-07-29T07:09:57.706Z,993
2017-07-29T07:11:05.203Z,993
2017-07-29T07:12:13.900Z,993
2017-07-29T07:13:21.053Z,993
2017-07-29T07:14:28.543Z,993
2017-07-29T07:15:36.022Z,992
2017-07-29T07:16:43.474Z,992
2017-07-29T07:17:50.963Z,992
2017-07-29T07:18:58.441Z,992
2017-07-29T07:20:05.923Z,993
2017-07-29T07:21:13.399Z,992
2017-07-29T07:22:20.853Z,992
2017-07-29T07:23:28.339Z,992
2017-07-29T07:24:35.818Z,992
2017-07-29T07:25:43.296Z,992
2017-07-29T07:26:50.780Z,992
2017-07-29T07:27:58.566Z,993
2017-07-29T07:29:06.050Z,993
2017-07-29T07:30:13.529Z,992
2017-07-29T07:31:21.013Z,992
2017-07-29T07:32:28.500Z,992
2017-07-29T07:33:36.285Z,992
2017-07-29T07:34:43.774Z,993
2017-07-29T07:35:50.937Z,992
2017-07-29T07:36:58.092Z,992
2017-07-29T07:38:05.574Z,992
2017-07-29T07:39:13.021Z,993
2017-07-29T07:40:20.498Z,993
2017-07-29T07:41:27.986Z,992
2017-07-29T07:42:35.464Z,992
2017-07-29T07:43:42.954Z,992
2017-07-29T07:44:50.732Z,992
2017-07-29T07:45:58.211Z,992
2017-07-29T07:47:05.694Z,992
2017-07-29T07:48:13.183Z,992
2017-07-29T07:49:20.662Z,992
2017-07-29T07:50:28.142Z,992
2017-07-29T07:51:35.292Z,991
2017-07-29T07:52:42.456Z,992
2017-07-29T07:53:49.936Z,991
2017-07-29T07:54:57.421Z,992
2017-07-29T07:56:05.222Z,992
2017-07-29T07:57:12.369Z,992
2017-07-29T07:58:19.856Z,992
2017-07-29T07:59:27.337Z,992
2017-07-29T08:00:34.819Z,991
2017-07-29T08:01:42.605Z,991
2017-07-29T08:02:50.090Z,992
2017-07-29T08:03:57.243Z,991
2017-07-29T08:05:04.727Z,992
2017-07-29T08:06:12.208Z,992
2017-07-29T08:07:19.992Z,991
2017-07-29T08:08:27.478Z,991
2017-07-29T08:09:34.957Z,991
2017-07-29T08:10:42.441Z,991
2017-07-29T08:11:49.933Z,991
2017-07-29T08:12:57.422Z,991
2017-07-29T08:14:04.907Z,991
2017-07-29T08:15:12.407Z,991
2017-07-29T08:16:19.889Z,991
2017-07-29T08:17:27.371Z,991
2017-07-29T08:18:35.200Z,991
2017-07-29T08:19:42.687Z,990
2017-07-29T08:20:50.170Z,990
2017-07-29T08:21:57.653Z,991
2017-07-29T08:23:05.140Z,990
2017-07-29T08:24:12.622Z,990
2017-07-29T08:25:20.405Z,990
2017-07-29T08:26:27.884Z,991
2017-07-29T08:27:35.366Z,990
2017-07-29T08:28:42.847Z,991
2017-07-29T08:29:50.349Z,990
2017-07-29T08:30:57.802Z,990
2017-07-29T08:32:04.957Z,991
2017-07-29T08:33:12.432Z,991
2017-07-29T08:34:19.925Z,991
2017-07-29T08:35:27.408Z,991
2017-07-29T08:36:35.194Z,990
2017-07-29T08:37:42.677Z,991
2017-07-29T08:38:50.157Z,991
2017-07-29T08:39:57.652Z,990
2017-07-29T08:41:04.814Z,991
2017-07-29T08:42:12.293Z,991
2017-07-29T08:43:19.447Z,991
2017-07-29T08:44:26.927Z,990
2017-07-29T08:45:34.437Z,991
2017-07-29T08:46:41.913Z,991
2017-07-29T08:47:49.361Z,991
2017-07-29T08:48:56.838Z,991
2017-07-29T08:50:04.322Z,991
2017-07-29T08:51:11.802Z,991
2017-07-29T08:52:19.281Z,992
2017-07-29T08:53:27.066Z,991
2017-07-29T08:54:34.557Z,992
2017-07-29T08:55:42.031Z,991
2017-07-29T08:56:49.514Z,991
2017-07-29T08:57:56.996Z,991
2017-07-29T08:59:04.445Z,991
2017-07-29T09:00:11.929Z,991
2017-07-29T09:01:19.098Z,992
2017-07-29T09:02:26.585Z,991
2017-07-29T09:03:33.741Z,992
2017-07-29T09:04:41.223Z,992
2017-07-29T09:05:48.378Z,991
2017-07-29T09:06:55.862Z,991
2017-07-29T09:08:03.351Z,991
2017-07-29T09:09:11.135Z,991
2017-07-29T09:10:18.309Z,991
2017-07-29T09:11:25.793Z,991
2017-07-29T09:12:33.279Z,990
2017-07-29T09:13:40.769Z,990
2017-07-29T09:14:48.223Z,991
2017-07-29T09:15:55.713Z,990
2017-07-29T09:17:03.195Z,990
2017-07-29T09:18:10.674Z,990
2017-07-29T09:19:17.835Z,989
2017-07-29T09:20:25.613Z,990
2017-07-29T09:21:32.762Z,990
2017-07-29T09:22:40.249Z,990
2017-07-29T09:23:47.732Z,990
2017-07-29T09:24:55.216Z,990
2017-07-29T09:26:02.994Z,990
2017-07-29T09:27:10.488Z,990
2017-07-29T09:28:17.968Z,991
2017-07-29T09:29:25.457Z,991
2017-07-29T09:30:32.946Z,991
2017-07-29T09:31:40.434Z,991
2017-07-29T09:32:47.920Z,991
2017-07-29T09:33:55.404Z,991
2017-07-29T09:35:02.890Z,991
2017-07-29T09:36:10.685Z,992
2017-07-29T09:37:18.173Z,991
2017-07-29T09:38:25.664Z,991
2017-07-29T09:39:33.178Z,991
2017-07-29T09:40:40.660Z,991
2017-07-29T09:41:48.129Z,991
2017-07-29T09:42:55.612Z,991
2017-07-29T09:44:03.096Z,991
2017-07-29T09:45:10.589Z,992
2017-07-29T09:46:18.078Z,991
2017-07-29T09:47:25.535Z,991
2017-07-29T09:48:33.022Z,991
2017-07-29T09:49:40.745Z,991
2017-07-29T09:50:48.246Z,992
2017-07-29T09:51:55.744Z,991
2017-07-29T09:53:03.547Z,992
2017-07-29T09:54:10.709Z,991
2017-07-29T09:55:18.435Z,991
2017-07-29T09:56:25.923Z,992
2017-07-29T09:57:33.438Z,991
2017-07-29T09:58:40.926Z,991
2017-07-29T09:59:48.418Z,991
2017-07-29T10:00:55.919Z,991
2017-07-29T10:02:03.405Z,991
2017-07-29T10:03:11.127Z,991
2017-07-29T10:04:19.209Z,990
2017-07-29T10:05:26.356Z,990
2017-07-29T10:06:33.840Z,990
2017-07-29T10:07:41.326Z,989
2017-07-29T10:08:48.818Z,989
2017-07-29T10:09:57.160Z,989
2017-07-29T10:11:04.311Z,989
2017-07-29T10:12:11.800Z,991
2017-07-29T10:13:19.287Z,991
2017-07-29T10:14:26.779Z,992
2017-07-29T10:15:34.598Z,991
2017-07-29T10:16:41.762Z,991
2017-07-29T10:17:49.246Z,989
2017-07-29T10:18:56.749Z,989
2017-07-29T10:20:03.916Z,989
2017-07-29T10:21:11.424Z,988
2017-07-29T10:22:18.945Z,988
2017-07-29T10:23:26.423Z,988
2017-07-29T10:24:33.590Z,989
2017-07-29T10:25:41.085Z,988
2017-07-29T10:26:48.235Z,988
2017-07-29T10:27:55.732Z,988
2017-07-29T10:29:02.890Z,988
2017-07-29T10:30:10.384Z,989
2017-07-29T10:31:18.181Z,989
2017-07-29T10:32:25.663Z,988
2017-07-29T10:33:33.384Z,988
2017-07-29T10:34:40.872Z,988
2017-07-29T10:35:48.261Z,988
2017-07-29T10:36:56.098Z,987
2017-07-29T10:38:03.603Z,987
2017-07-29T10:39:11.088Z,987
2017-07-29T10:40:18.573Z,987
2017-07-29T10:41:25.728Z,986
2017-07-29T10:42:32.541Z,986
2017-07-29T10:43:40.003Z,986
2017-07-29T10:44:47.431Z,987
2017-07-29T10:45:54.935Z,987
2017-07-29T10:47:02.421Z,987
2017-07-29T10:48:09.574Z,986
2017-07-29T10:49:17.029Z,987
2017-07-29T10:50:24.517Z,986
2017-07-29T10:51:32.012Z,985
2017-07-29T10:52:39.407Z,986
2017-07-29T10:53:46.897Z,986
2017-07-29T10:54:54.622Z,986
2017-07-29T10:56:02.112Z,986
2017-07-29T10:57:09.638Z,986
2017-07-29T10:58:17.121Z,988
2017-07-29T10:59:24.642Z,989
2017-07-29T11:00:32.134Z,990
2017-07-29T11:01:40.011Z,987
2017-07-29T11:02:47.530Z,987
2017-07-29T11:03:55.016Z,985
2017-07-29T11:05:02.822Z,986
2017-07-29T11:06:10.314Z,986
2017-07-29T11:07:17.801Z,984
2017-07-29T11:08:25.286Z,985
2017-07-29T11:09:32.774Z,984
2017-07-29T11:10:40.567Z,985
2017-07-29T11:11:47.744Z,985
2017-07-29T11:12:55.229Z,985
2017-07-29T11:14:02.756Z,986
2017-07-29T11:15:09.916Z,987
2017-07-29T11:16:17.720Z,987
2017-07-29T11:17:25.206Z,987
2017-07-29T11:18:32.365Z,987
2017-07-29T11:19:39.563Z,987
2017-07-29T11:20:46.733Z,986
2017-07-29T11:21:54.586Z,986
2017-07-29T11:23:02.069Z,987
2017-07-29T11:24:09.231Z,987
2017-07-29T11:25:16.721Z,987
2017-07-29T11:26:24.208Z,986
2017-07-29T11:27:32.054Z,987
2017-07-29T11:28:39.543Z,986
2017-07-29T11:29:47.034Z,986
2017-07-29T11:30:54.519Z,987
2017-07-29T11:32:02.005Z,988
2017-07-29T11:33:10.044Z,987
2017-07-29T11:34:17.537Z,985
2017-07-29T11:35:25.035Z,986
2017-07-29T11:36:32.529Z,987
2017-07-29T11:37:40.028Z,988
2017-07-29T11:38:47.871Z,986
2017-07-29T11:39:55.026Z,987
2017-07-29T11:41:02.539Z,986
2017-07-29T11:42:10.032Z,987
2017-07-29T11:43:17.522Z,986
2017-07-29T11:44:25.356Z,986
2017-07-29T11:45:33.066Z,986
2017-07-29T11:46:40.557Z,985
2017-07-29T11:47:47.722Z,986
2017-07-29T11:48:55.223Z,989
2017-07-29T11:50:03.024Z,990
2017-07-29T11:51:10.518Z,990
2017-07-29T11:52:18.032Z,991
2017-07-29T11:53:25.525Z,991
2017-07-29T11:54:33.216Z,991
2017-07-29T11:55:41.010Z,991
2017-07-29T11:56:48.510Z,992
2017-07-29T11:57:55.991Z,991
2017-07-29T11:59:03.494Z,990
2017-07-29T12:00:10.983Z,990
2017-07-29T12:01:18.781Z,990
2017-07-29T12:02:26.274Z,991
2017-07-29T12:03:33.758Z,991
2017-07-29T12:04:40.916Z,991
2017-07-29T12:05:48.412Z,991
2017-07-29T12:06:55.572Z,991
2017-07-29T12:08:03.068Z,992
2017-07-29T12:09:10.566Z,990
2017-07-29T12:10:18.053Z,991
2017-07-29T12:11:25.209Z,990
2017-07-29T12:12:32.678Z,990
2017-07-29T12:13:39.838Z,990
2017-07-29T12:14:47.322Z,990
2017-07-29T12:15:54.818Z,990
2017-07-29T12:17:02.322Z,988
2017-07-29T12:18:09.784Z,989
2017-07-29T12:19:17.270Z,990
2017-07-29T12:20:24.759Z,990
2017-07-29T12:21:31.925Z,991
2017-07-29T12:22:39.409Z,987
2017-07-29T12:23:46.899Z,984
2017-07-29T12:24:54.397Z,984
2017-07-29T12:26:01.893Z,984
2017-07-29T12:27:09.060Z,985
2017-07-29T12:28:16.569Z,985
2017-07-29T12:29:24.050Z,985
2017-07-29T12:30:31.532Z,984
2017-07-29T12:31:39.022Z,984
2017-07-29T12:32:46.509Z,985
2017-07-29T12:33:53.997Z,985
2017-07-29T12:35:01.785Z,987
2017-07-29T12:36:09.276Z,988
2017-07-29T12:37:16.774Z,987
2017-07-29T12:38:24.266Z,986
2017-07-29T12:39:31.749Z,987
2017-07-29T12:40:39.533Z,986
2017-07-29T12:41:47.020Z,985
2017-07-29T12:42:54.509Z,985
2017-07-29T12:44:02.004Z,985
2017-07-29T12:45:09.517Z,984
2017-07-29T12:46:17.361Z,985
2017-07-29T12:47:24.849Z,986
2017-07-29T12:48:32.017Z,986
2017-07-29T12:49:39.525Z,985
2017-07-29T12:50:47.027Z,988
2017-07-29T12:51:54.815Z,989
2017-07-29T12:53:02.310Z,987
2017-07-29T12:54:09.823Z,987
2017-07-29T12:55:17.312Z,987
2017-07-29T12:56:24.499Z,986
2017-07-29T12:57:32.288Z,986
2017-07-29T12:58:39.791Z,987
2017-07-29T12:59:47.285Z,988
2017-07-29T13:00:54.776Z,988
2017-07-29T13:02:02.276Z,986
2017-07-29T13:03:10.073Z,986
2017-07-29T13:04:17.563Z,986
2017-07-29T13:05:24.725Z,987
2017-07-29T13:06:32.214Z,987
2017-07-29T13:07:41.644Z,987
2017-07-29T13:08:49.485Z,987
2017-07-29T13:09:56.976Z,987
2017-07-29T13:11:04.462Z,988
2017-07-29T13:12:11.626Z,987
2017-07-29T13:13:19.116Z,987
2017-07-29T13:14:26.958Z,988
2017-07-29T13:15:34.448Z,989
2017-07-29T13:16:41.935Z,990
2017-07-29T13:17:49.427Z,990
2017-07-29T13:18:56.625Z,989
2017-07-29T13:20:04.459Z,989
2017-07-29T13:21:11.942Z,989
2017-07-29T13:22:19.448Z,990
2017-07-29T13:23:26.941Z,990
2017-07-29T13:24:34.433Z,991
2017-07-29T13:25:41.898Z,989
2017-07-29T13:26:49.390Z,989
2017-07-29T13:27:56.888Z,989
2017-07-29T13:29:04.383Z,990
2017-07-29T13:30:11.878Z,988
2017-07-29T13:31:19.676Z,989
2017-07-29T13:32:27.171Z,987
2017-07-29T13:33:34.658Z,986
2017-07-29T13:34:42.150Z,987
2017-07-29T13:35:49.644Z,989
2017-07-29T13:36:57.123Z,991
2017-07-29T13:38:04.613Z,991
2017-07-29T13:39:12.102Z,989
2017-07-29T13:40:19.604Z,987
2017-07-29T13:41:27.098Z,985
2017-07-29T13:42:34.574Z,987
2017-07-29T13:43:42.058Z,988
2017-07-29T13:44:49.565Z,988
2017-07-29T13:45:57.055Z,986
2017-07-29T13:47:04.548Z,986
2017-07-29T13:48:12.341Z,985
2017-07-29T13:49:19.826Z,985
2017-07-29T13:50:27.316Z,985
2017-07-29T13:51:34.804Z,987
2017-07-29T13:52:41.966Z,989
2017-07-29T13:53:49.474Z,991
2017-07-29T13:54:56.971Z,991
2017-07-29T13:56:04.464Z,991
2017-07-29T13:57:11.961Z,992
2017-07-29T13:58:19.475Z,992
2017-07-29T13:59:26.969Z,991
2017-07-29T14:00:34.466Z,988
2017-07-29T14:01:41.998Z,985
2017-07-29T14:02:49.790Z,983
2017-07-29T14:03:57.293Z,982
2017-07-29T14:05:04.457Z,983
2017-07-29T14:06:11.947Z,985
2017-07-29T14:07:19.435Z,985
2017-07-29T14:08:27.228Z,987
2017-07-29T14:09:34.716Z,989
2017-07-29T14:10:42.203Z,989
2017-07-29T14:11:49.376Z,990
2017-07-29T14:12:56.880Z,989
2017-07-29T14:14:04.674Z,990
2017-07-29T14:15:12.168Z,991
2017-07-29T14:16:19.665Z,991
2017-07-29T14:17:27.175Z,991
2017-07-29T14:18:34.343Z,988
2017-07-29T14:19:41.502Z,986
2017-07-29T14:20:48.991Z,984
2017-07-29T14:21:56.481Z,985
2017-07-29T14:23:03.984Z,988
2017-07-29T14:24:11.478Z,990
2017-07-29T14:25:18.940Z,990
2017-07-29T14:26:26.445Z,991
2017-07-29T14:27:33.932Z,991
2017-07-29T14:28:41.425Z,992
2017-07-29T14:29:48.911Z,992
2017-07-29T14:30:56.707Z,993
2017-07-29T14:32:04.198Z,992
2017-07-29T14:33:11.690Z,992
2017-07-29T14:34:19.179Z,992
2017-07-29T14:35:26.664Z,991
2017-07-29T14:36:34.458Z,991
2017-07-29T14:37:41.945Z,992
2017-07-29T14:38:49.440Z,992
2017-07-29T14:39:56.973Z,993
2017-07-29T14:41:04.466Z,992
2017-07-29T14:42:11.971Z,993
2017-07-29T14:43:19.456Z,993
2017-07-29T14:44:27.268Z,993
2017-07-29T14:45:34.437Z,993
2017-07-29T14:46:41.930Z,992
2017-07-29T14:48:04.006Z,993
2017-07-29T14:49:11.495Z,992
2017-07-29T14:50:19.288Z,991
2017-07-29T14:51:26.785Z,991
2017-07-29T14:52:34.271Z,990
2017-07-29T14:53:41.675Z,990
2017-07-29T14:54:49.168Z,991
2017-07-29T14:55:56.959Z,992
2017-07-29T14:57:04.124Z,991
2017-07-29T14:58:11.282Z,992
2017-07-29T14:59:18.776Z,991
2017-07-29T15:00:26.290Z,991
2017-07-29T15:01:33.115Z,992
2017-07-29T15:02:40.608Z,992
2017-07-29T15:03:48.106Z,992
2017-07-29T15:04:55.595Z,992
2017-07-29T15:06:03.108Z,993
2017-07-29T15:07:10.899Z,992
2017-07-29T15:08:18.390Z,992
2017-07-29T15:09:25.887Z,992
2017-07-29T15:10:33.379Z,992
2017-07-29T15:11:40.538Z,991
2017-07-29T15:12:48.328Z,992
2017-07-29T15:13:55.830Z,992
2017-07-29T15:15:03.322Z,992
2017-07-29T15:16:10.822Z,990
2017-07-29T15:17:18.323Z,990
2017-07-29T15:18:26.106Z,989
2017-07-29T15:19:33.594Z,990
2017-07-29T15:20:41.088Z,990
2017-07-29T15:21:48.578Z,991
2017-07-29T15:22:56.066Z,992
2017-07-29T15:24:03.555Z,991
2017-07-29T15:25:11.051Z,992
2017-07-29T15:26:18.215Z,993
2017-07-29T15:27:25.378Z,992
2017-07-29T15:28:32.870Z,992
2017-07-29T15:29:40.381Z,992